createdAt,value
2023-03-24T00:00:12.757Z,4.90
2023-03-24T00:02:42.670Z,5.20
2023-03-24T00:05:12.721Z,4.80
2023-03-24T00:07:41.954Z,5.73
2023-03-24T00:10:12.605Z,6.13
2023-03-24T00:12:42.801Z,5.17
2023-03-24T00:15:13.917Z,6.10
2023-03-24T00:17:42.343Z,5.40
2023-03-24T00:20:15.521Z,5.77
2023-03-24T00:22:49.703Z,7.07
2023-03-24T00:25:19.765Z,5.33
2023-03-24T00:27:50.099Z,5.40
2023-03-24T00:30:20.200Z,5.87
2023-03-24T00:32:48.990Z,6.67
2023-03-24T00:35:19.100Z,6.00
2023-03-24T00:37:47.900Z,5.73
2023-03-24T00:40:18.518Z,6.07
2023-03-24T00:42:49.783Z,6.30
2023-03-24T00:45:20.593Z,6.33
2023-03-24T00:47:50.178Z,5.97
2023-03-24T00:50:20.862Z,6.80
2023-03-24T00:52:49.671Z,6.70
2023-03-24T00:55:19.010Z,6.07
2023-03-24T00:57:51.279Z,6.60
2023-03-24T01:00:22.470Z,6.43
2023-03-24T01:02:53.825Z,6.70
2023-03-24T01:05:22.865Z,6.57
2023-03-24T01:07:52.794Z,7.07
2023-03-24T01:10:26.478Z,6.70
2023-03-24T01:12:58.891Z,7.43
2023-03-24T01:15:30.014Z,6.53
2023-03-24T01:17:58.612Z,6.80
2023-03-24T01:20:27.406Z,6.23
2023-03-24T01:22:55.901Z,6.63
2023-03-24T01:25:25.946Z,6.37
2023-03-24T01:27:56.198Z,7.10
2023-03-24T01:30:27.160Z,6.27
2023-03-24T01:32:55.815Z,6.67
2023-03-24T01:35:28.910Z,6.03
2023-03-24T01:37:57.892Z,5.57
2023-03-24T01:40:28.749Z,6.33
2023-03-24T01:42:59.377Z,5.93
2023-03-24T01:46:00.683Z,5.50
2023-03-24T01:48:34.749Z,7.20
2023-03-24T01:51:07.333Z,7.97
2023-03-24T01:53:39.474Z,6.30
2023-03-24T01:56:11.426Z,8.23
2023-03-24T01:58:45.077Z,8.30
2023-03-24T02:01:13.923Z,7.97
2023-03-24T02:03:43.157Z,7.23
2023-03-24T02:06:12.448Z,7.10
2023-03-24T02:08:45.668Z,6.60
2023-03-24T02:11:14.327Z,8.23
2023-03-24T02:13:44.653Z,6.67
2023-03-24T02:16:23.880Z,6.07
2023-03-24T02:19:12.712Z,7.07
2023-03-24T02:22:20.998Z,6.70
2023-03-24T02:25:16.565Z,5.77
2023-03-24T02:28:10.785Z,5.13
2023-03-24T02:31:06.588Z,5.20
2023-03-24T02:34:09.791Z,5.07
2023-03-24T02:36:57.546Z,5.73
2023-03-24T02:39:48.415Z,5.87
2023-03-24T02:42:32.451Z,6.07
2023-03-24T02:45:11.586Z,5.60
2023-03-24T02:47:51.216Z,5.90
2023-03-24T02:50:27.376Z,5.13
2023-03-24T02:53:06.609Z,5.23
2023-03-24T02:55:42.101Z,5.43
2023-03-24T02:58:15.977Z,5.03
2023-03-24T03:00:48.370Z,4.90
2023-03-24T03:03:25.171Z,5.07
2023-03-24T03:05:58.891Z,4.77
2023-03-24T03:08:32.572Z,5.37
2023-03-24T03:11:06.872Z,5.03
2023-03-24T03:13:39.043Z,4.97
2023-03-24T03:16:14.244Z,4.80
2023-03-24T03:18:50.211Z,5.30
2023-03-24T03:21:22.579Z,6.47
2023-03-24T03:23:55.710Z,6.10
2023-03-24T03:26:28.743Z,5.67
2023-03-24T03:29:00.895Z,5.47
2023-03-24T03:31:32.697Z,5.57
2023-03-24T03:34:13.396Z,5.90
2023-03-24T03:36:49.380Z,6.53
2023-03-24T03:39:24.415Z,7.13
2023-03-24T03:41:54.854Z,8.83
2023-03-24T03:44:23.320Z,8.40
2023-03-24T03:46:51.872Z,9.70
2023-03-24T03:49:20.517Z,10.40
2023-03-24T03:51:49.111Z,10.27
2023-03-24T03:54:19.033Z,10.93
2023-03-24T03:56:50.091Z,10.03
2023-03-24T03:59:31.231Z,10.23
2023-03-24T04:01:59.791Z,10.00
2023-03-24T04:05:05.725Z,10.00
2023-03-24T04:07:41.689Z,8.90
2023-03-24T04:10:21.489Z,7.93
2023-03-24T04:13:09.421Z,8.87
2023-03-24T04:15:47.146Z,8.73
2023-03-24T04:18:33.420Z,10.07
2023-03-24T04:21:15.682Z,10.70
2023-03-24T04:23:54.453Z,10.30
2023-03-24T04:26:28.632Z,11.03
2023-03-24T04:29:09.239Z,10.97
2023-03-24T04:31:44.578Z,9.57
2023-03-24T04:34:20.858Z,10.40
2023-03-24T04:36:55.560Z,10.07
2023-03-24T04:39:28.413Z,10.07
2023-03-24T04:41:58.912Z,9.07
2023-03-24T04:44:28.756Z,9.63
2023-03-24T04:47:01.268Z,9.87
2023-03-24T04:49:29.906Z,9.67
2023-03-24T04:51:58.393Z,9.27
2023-03-24T04:54:26.763Z,10.10
2023-03-24T04:56:57.262Z,9.73
2023-03-24T04:59:26.026Z,9.53
2023-03-24T05:01:54.411Z,9.90
2023-03-24T05:04:25.748Z,10.57
2023-03-24T05:06:54.175Z,9.33
2023-03-24T05:09:24.946Z,9.77
2023-03-24T05:11:53.304Z,9.97
2023-03-24T05:14:21.867Z,9.70
2023-03-24T05:16:50.252Z,9.83
2023-03-24T05:19:18.677Z,10.10
2023-03-24T05:21:48.736Z,10.23
2023-03-24T05:24:17.109Z,11.00
2023-03-24T05:26:45.403Z,10.43
2023-03-24T05:29:13.752Z,10.47
2023-03-24T05:31:42.178Z,10.57
2023-03-24T05:34:10.926Z,11.03
2023-03-24T05:36:40.145Z,12.33
2023-03-24T05:39:09.908Z,11.90
2023-03-24T05:41:38.278Z,12.10
2023-03-24T05:44:06.828Z,12.27
2023-03-24T05:46:35.194Z,12.47
2023-03-24T05:49:03.540Z,12.40
2023-03-24T05:51:32.033Z,11.70
2023-03-24T05:54:00.382Z,13.60
2023-03-24T05:56:31.460Z,12.27
2023-03-24T05:58:59.908Z,12.60
2023-03-24T06:01:29.028Z,12.33
2023-03-24T06:03:57.547Z,14.03
2023-03-24T06:06:26.397Z,19.00
2023-03-24T06:08:55.640Z,21.23
2023-03-24T06:11:24.018Z,23.60
2023-03-24T06:13:53.713Z,25.43
2023-03-24T06:16:25.312Z,29.03
2023-03-24T06:18:54.812Z,28.57
2023-03-24T06:21:33.100Z,26.73
2023-03-24T06:24:04.188Z,27.10
2023-03-24T06:26:32.550Z,24.93
2023-03-24T06:29:02.448Z,22.27
2023-03-24T06:31:30.912Z,19.23
2023-03-24T06:33:59.434Z,19.87
2023-03-24T06:36:27.777Z,18.30
2023-03-24T06:38:56.398Z,16.33
2023-03-24T06:41:25.159Z,16.70
2023-03-24T06:43:53.435Z,16.63
2023-03-24T06:46:23.182Z,15.63
2023-03-24T06:48:51.822Z,15.50
2023-03-24T06:51:20.167Z,14.77
2023-03-24T06:53:48.565Z,14.40
2023-03-24T06:56:18.425Z,14.73
2023-03-24T06:58:47.044Z,13.77
2023-03-24T07:01:16.118Z,13.70
2023-03-24T07:03:46.062Z,16.47
2023-03-24T07:06:14.556Z,14.27
2023-03-24T07:08:42.836Z,13.77
2023-03-24T07:11:11.288Z,14.70
2023-03-24T07:13:39.795Z,14.20
2023-03-24T07:16:09.097Z,14.77
2023-03-24T07:18:37.559Z,14.20
2023-03-24T07:21:07.777Z,15.33
2023-03-24T07:23:36.310Z,14.67
2023-03-24T07:26:04.603Z,19.77
2023-03-24T07:28:32.903Z,17.90
2023-03-24T07:31:04.527Z,16.63
2023-03-24T07:33:33.126Z,16.17
2023-03-24T07:36:01.463Z,15.37
2023-03-24T07:38:31.302Z,14.60
2023-03-24T07:41:00.547Z,13.70
2023-03-24T07:43:29.007Z,11.27
2023-03-24T07:45:57.386Z,11.17
2023-03-24T07:48:25.749Z,11.13
2023-03-24T07:50:55.055Z,10.13
2023-03-24T07:53:23.489Z,8.93
2023-03-24T07:55:53.420Z,9.13
2023-03-24T07:58:21.860Z,9.37
2023-03-24T08:00:50.353Z,7.97
2023-03-24T08:03:19.098Z,8.63
2023-03-24T08:05:47.643Z,8.30
2023-03-24T08:08:16.714Z,8.33
2023-03-24T08:10:46.142Z,7.60
2023-03-24T08:13:16.233Z,7.67
2023-03-24T08:15:44.547Z,8.77
2023-03-24T08:18:13.103Z,10.47
2023-03-24T08:20:41.533Z,10.20
2023-03-24T08:23:10.425Z,10.10
2023-03-24T08:25:38.788Z,8.53
2023-03-24T08:28:07.536Z,8.13
2023-03-24T08:30:37.513Z,7.60
2023-03-24T08:33:06.275Z,7.20
2023-03-24T08:35:38.911Z,8.33
2023-03-24T08:38:08.468Z,6.87
2023-03-24T08:40:38.822Z,6.60
2023-03-24T08:43:09.479Z,6.50
2023-03-24T08:45:39.841Z,6.53
2023-03-24T08:48:09.569Z,6.60
2023-03-24T08:50:39.615Z,6.57
2023-03-24T08:53:08.745Z,7.00
2023-03-24T08:55:41.763Z,6.30
2023-03-24T08:58:10.903Z,5.50
2023-03-24T09:00:41.666Z,7.10
2023-03-24T09:03:14.784Z,6.67
2023-03-24T09:05:44.740Z,6.57
2023-03-24T09:08:14.248Z,6.33
2023-03-24T09:10:43.343Z,6.40
2023-03-24T09:13:11.744Z,6.80
2023-03-24T09:15:42.226Z,6.87
2023-03-24T09:18:10.588Z,6.80
2023-03-24T09:20:38.891Z,7.17
2023-03-24T09:23:07.225Z,7.57
2023-03-24T09:25:35.656Z,7.77
2023-03-24T09:28:04.155Z,8.87
2023-03-24T09:30:34.662Z,7.63
2023-03-24T09:33:05.229Z,6.80
2023-03-24T09:35:33.730Z,7.00
2023-03-24T09:38:02.136Z,6.03
2023-03-24T09:40:32.851Z,5.43
2023-03-24T09:43:05.358Z,6.15
2023-03-24T09:45:38.774Z,8.60
2023-03-24T09:48:13.797Z,8.10
2023-03-24T09:50:50.856Z,7.57
2023-03-24T09:53:28.950Z,7.77
2023-03-24T09:55:59.078Z,8.07
2023-03-24T09:58:33.751Z,9.53
2023-03-24T10:01:02.302Z,12.13
2023-03-24T10:03:32.264Z,11.93
2023-03-24T10:06:06.777Z,12.33
2023-03-24T10:08:38.592Z,12.40
2023-03-24T10:11:10.600Z,11.77
2023-03-24T10:13:52.928Z,13.63
2023-03-24T10:16:29.059Z,13.43
2023-03-24T10:19:05.381Z,15.65
2023-03-24T10:21:39.038Z,12.05
2023-03-24T10:24:14.446Z,8.10
2023-03-24T10:26:50.617Z,7.93
2023-03-24T10:29:26.389Z,8.02
2023-03-24T10:32:00.376Z,7.93
2023-03-24T10:34:33.083Z,7.88
2023-03-24T10:37:03.520Z,4.18
2023-03-24T10:39:43.968Z,6.72
2023-03-24T10:42:18.731Z,5.53
2023-03-24T10:44:49.057Z,6.22
2023-03-24T10:47:21.721Z,5.82
2023-03-24T10:50:14.521Z,4.25
2023-03-24T10:52:45.548Z,4.57
2023-03-24T10:55:19.310Z,4.13
2023-03-24T10:57:50.878Z,6.63
2023-03-24T11:00:26.591Z,3.80
2023-03-24T11:02:58.923Z,6.43
2023-03-24T11:05:35.198Z,4.82
2023-03-24T11:08:19.903Z,3.55
2023-03-24T11:10:48.286Z,5.97
2023-03-24T11:13:20.212Z,6.35
2023-03-24T11:15:58.076Z,3.95
2023-03-24T11:18:26.452Z,3.92
2023-03-24T11:21:00.997Z,4.97
2023-03-24T11:23:32.628Z,3.33
2023-03-24T11:26:09.449Z,3.35
2023-03-24T11:28:41.631Z,3.80
2023-03-24T11:31:11.869Z,5.22
2023-03-24T11:33:46.684Z,3.10
2023-03-24T11:36:54.593Z,4.43
2023-03-24T11:39:26.391Z,3.05
2023-03-24T11:42:07.509Z,3.90
2023-03-24T11:44:47.293Z,4.45
2023-03-24T11:47:22.692Z,3.90
2023-03-24T11:49:58.243Z,3.63
2023-03-24T11:52:30.580Z,4.35
2023-03-24T11:55:00.367Z,3.30
2023-03-24T11:57:42.215Z,3.58
2023-03-24T12:00:21.400Z,4.22
2023-03-24T12:03:17.708Z,3.08
2023-03-24T12:05:53.624Z,2.67
2023-03-24T12:08:36.501Z,2.78
2023-03-24T12:11:19.367Z,3.92
2023-03-24T12:13:51.592Z,2.42
2023-03-24T12:16:41.886Z,3.65
2023-03-24T12:19:27.590Z,2.08
2023-03-24T12:22:05.878Z,2.47
2023-03-24T12:24:48.694Z,4.55
2023-03-24T12:27:27.722Z,2.72
2023-03-24T12:30:02.285Z,3.95
2023-03-24T12:33:01.439Z,2.88
2023-03-24T12:35:43.347Z,2.17
2023-03-24T12:38:35.814Z,3.15
2023-03-24T12:41:29.056Z,3.28
2023-03-24T12:44:29.414Z,2.33
2023-03-24T12:47:08.306Z,2.17
2023-03-24T12:49:53.034Z,3.05
2023-03-24T12:53:06.639Z,3.97
2023-03-24T12:55:42.675Z,2.38
2023-03-24T12:58:16.287Z,1.45
2023-03-24T13:00:52.511Z,1.45
2023-03-24T13:03:26.900Z,2.03
2023-03-24T13:06:07.403Z,1.40
2023-03-24T13:08:49.495Z,1.95
2023-03-24T13:11:32.313Z,1.67
2023-03-24T13:14:04.787Z,1.63
2023-03-24T13:16:37.297Z,1.45
2023-03-24T13:19:13.953Z,1.88
2023-03-24T13:21:43.103Z,3.35
2023-03-24T13:24:15.256Z,1.33
2023-03-24T13:26:51.976Z,1.30
2023-03-24T13:29:41.948Z,1.23
2023-03-24T13:32:28.567Z,2.65
2023-03-24T13:35:02.931Z,1.63
2023-03-24T13:37:35.960Z,1.60
2023-03-24T13:40:11.071Z,1.42
2023-03-24T13:42:45.114Z,1.48
2023-03-24T13:45:25.544Z,1.20
2023-03-24T13:48:06.844Z,3.22
2023-03-24T13:50:38.394Z,2.42
2023-03-24T13:53:12.806Z,1.83
2023-03-24T13:55:46.832Z,1.90
2023-03-24T13:58:21.484Z,1.27
2023-03-24T14:01:17.557Z,2.25
2023-03-24T14:04:08.589Z,3.17
2023-03-24T14:06:48.296Z,3.80
2023-03-24T14:09:21.302Z,1.83
2023-03-24T14:12:21.433Z,1.42
2023-03-24T14:15:18.605Z,1.63
2023-03-24T14:17:48.992Z,1.35
2023-03-24T14:20:34.920Z,1.33
2023-03-24T14:23:05.004Z,3.03
2023-03-24T14:25:34.393Z,1.25
2023-03-24T14:28:20.565Z,1.40
2023-03-24T14:31:20.639Z,1.30
2023-03-24T14:34:03.190Z,4.70
2023-03-24T14:36:39.475Z,1.23
2023-03-24T14:39:13.765Z,1.60
2023-03-24T14:41:44.417Z,1.42
2023-03-24T14:44:12.959Z,1.40
2023-03-24T14:46:44.559Z,1.50
2023-03-24T14:49:23.852Z,1.63
2023-03-24T14:52:04.636Z,1.58
2023-03-24T14:54:38.995Z,1.13
2023-03-24T14:57:09.778Z,1.67
2023-03-24T14:59:47.085Z,1.13
2023-03-24T15:02:26.450Z,1.27
2023-03-24T15:05:23.116Z,1.17
2023-03-24T15:08:15.813Z,2.35
2023-03-24T15:10:49.788Z,1.75
2023-03-24T15:13:37.142Z,1.45
2023-03-24T15:16:09.187Z,1.48
2023-03-24T15:18:57.769Z,1.38
2023-03-24T15:21:33.342Z,0.88
2023-03-24T15:24:04.522Z,1.58
2023-03-24T15:26:33.744Z,1.38
2023-03-24T15:29:04.218Z,1.10
2023-03-24T15:31:33.569Z,2.53
2023-03-24T15:34:07.629Z,2.13
2023-03-24T15:36:40.880Z,3.08
2023-03-24T15:39:22.184Z,1.38
2023-03-24T15:41:53.825Z,1.30
2023-03-24T15:44:25.381Z,2.50
2023-03-24T15:46:57.496Z,2.63
2023-03-24T15:49:28.447Z,2.40
2023-03-24T15:51:59.978Z,1.27
2023-03-24T15:54:32.510Z,3.05
2023-03-24T15:57:19.457Z,2.00
2023-03-24T15:59:49.727Z,1.30
2023-03-24T16:02:33.512Z,5.68
2023-03-24T16:07:37.818Z,1.63
2023-03-24T16:10:09.812Z,2.10
2023-03-24T16:12:38.926Z,1.73
2023-03-24T16:15:08.395Z,2.03
2023-03-24T16:17:36.768Z,4.30
2023-03-24T16:20:08.975Z,4.57
2023-03-24T16:22:37.332Z,3.67
2023-03-24T16:25:08.133Z,3.60
2023-03-24T16:27:37.859Z,2.40
2023-03-24T16:30:19.132Z,3.92
2023-03-24T16:32:47.476Z,3.03
2023-03-24T16:35:16.165Z,3.67
2023-03-24T16:37:44.721Z,3.38
2023-03-24T16:40:23.205Z,3.13
2023-03-24T16:42:51.517Z,2.70
2023-03-24T16:45:20.179Z,6.60
2023-03-24T16:47:48.579Z,3.45
2023-03-24T16:50:29.644Z,2.22
2023-03-24T16:52:58.061Z,2.55
2023-03-24T16:55:27.823Z,2.55
2023-03-24T16:57:56.200Z,2.50
2023-03-24T17:00:24.959Z,2.75
2023-03-24T17:02:53.973Z,3.13
2023-03-24T17:05:25.815Z,1.90
2023-03-24T17:07:54.576Z,2.35
2023-03-24T17:10:23.684Z,3.03
2023-03-24T17:12:55.597Z,5.25
2023-03-24T17:15:25.693Z,2.30
2023-03-24T17:17:54.346Z,2.40
2023-03-24T17:20:24.508Z,2.58
2023-03-24T17:22:56.753Z,3.20
2023-03-24T17:25:29.328Z,3.00
2023-03-24T17:27:59.052Z,3.47
2023-03-24T17:30:29.495Z,2.53
2023-03-24T17:32:58.352Z,4.25
2023-03-24T17:35:26.991Z,4.53
2023-03-24T17:37:55.357Z,5.03
2023-03-24T17:40:23.731Z,5.28
2023-03-24T17:42:52.047Z,3.90
2023-03-24T17:45:22.220Z,4.53
2023-03-24T17:47:50.733Z,5.60
2023-03-24T17:50:19.595Z,7.20
2023-03-24T17:52:49.141Z,5.57
2023-03-24T17:55:18.977Z,5.28
2023-03-24T17:57:47.432Z,5.55
2023-03-24T18:00:17.512Z,4.65
2023-03-24T18:02:47.442Z,6.18
2023-03-24T18:05:16.092Z,7.63
2023-03-24T18:07:44.503Z,13.23
2023-03-24T18:10:13.961Z,16.38
2023-03-24T18:12:42.399Z,14.43
2023-03-24T18:15:11.710Z,14.20
2023-03-24T18:17:40.458Z,12.73
2023-03-24T18:20:12.305Z,13.93
2023-03-24T18:22:41.178Z,13.63
2023-03-24T18:25:11.208Z,15.32
2023-03-24T18:27:40.078Z,13.45
2023-03-24T18:30:11.115Z,12.65
2023-03-24T18:32:40.017Z,12.88
2023-03-24T18:35:16.260Z,14.25
2023-03-24T18:37:45.599Z,13.90
2023-03-24T18:40:15.835Z,15.88
2023-03-24T18:42:44.256Z,15.55
2023-03-24T18:45:17.581Z,14.68
2023-03-24T18:47:46.721Z,13.77
2023-03-24T18:50:17.114Z,13.02
2023-03-24T18:52:46.031Z,10.80
2023-03-24T18:55:15.968Z,11.63
2023-03-24T18:57:44.329Z,13.35
2023-03-24T19:00:15.087Z,11.07
2023-03-24T19:02:43.691Z,9.60
2023-03-24T19:05:14.265Z,9.93
2023-03-24T19:07:46.016Z,8.10
2023-03-24T19:10:14.681Z,9.68
2023-03-24T19:12:43.222Z,8.77
2023-03-24T19:15:13.719Z,10.15
2023-03-24T19:17:42.188Z,9.65
2023-03-24T19:20:11.743Z,10.98
2023-03-24T19:22:41.697Z,8.35
2023-03-24T19:25:11.536Z,6.65
2023-03-24T19:27:39.863Z,7.15
2023-03-24T19:30:09.500Z,8.85
2023-03-24T19:32:37.991Z,7.03
2023-03-24T19:35:08.324Z,7.00
2023-03-24T19:37:37.779Z,8.77
2023-03-24T19:40:08.148Z,8.80
2023-03-24T19:42:40.489Z,8.45
2023-03-24T19:45:10.135Z,8.13
2023-03-24T19:47:38.868Z,9.35
2023-03-24T19:50:09.155Z,7.72
2023-03-24T19:52:38.319Z,7.45
2023-03-24T19:55:08.073Z,8.75
2023-03-24T19:57:38.157Z,6.43
2023-03-24T20:00:10.238Z,5.07
2023-03-24T20:02:39.313Z,8.32
2023-03-24T20:05:09.356Z,8.68
2023-03-24T20:07:37.809Z,6.18
2023-03-24T20:10:07.381Z,5.68
2023-03-24T20:12:37.125Z,4.80
2023-03-24T20:15:07.070Z,6.45
2023-03-24T20:17:37.700Z,5.35
2023-03-24T20:20:08.202Z,6.03
2023-03-24T20:22:36.758Z,5.43
2023-03-24T20:25:05.889Z,5.13
2023-03-24T20:27:34.370Z,6.20
2023-03-24T20:30:04.944Z,7.70
2023-03-24T20:32:33.943Z,7.37
2023-03-24T20:35:02.443Z,9.30
2023-03-24T20:37:31.588Z,12.73
2023-03-24T20:40:00.335Z,13.00
2023-03-24T20:42:28.985Z,10.10
2023-03-24T20:44:57.444Z,7.10
2023-03-24T20:47:28.631Z,6.80
2023-03-24T20:49:57.578Z,7.17
2023-03-24T20:52:27.288Z,5.45
2023-03-24T20:54:57.076Z,5.40
2023-03-24T20:57:27.741Z,5.43
2023-03-24T20:59:57.366Z,5.00
2023-03-24T21:02:27.630Z,5.80
2023-03-24T21:04:56.470Z,6.47
2023-03-24T21:07:25.989Z,8.90
2023-03-24T21:09:54.522Z,9.10
2023-03-24T21:12:23.887Z,8.33
2023-03-24T21:14:52.882Z,8.57
2023-03-24T21:17:23.018Z,8.33
2023-03-24T21:19:55.088Z,8.10
2023-03-24T21:22:37.793Z,8.23
2023-03-24T21:25:07.968Z,11.80
2023-03-24T21:27:37.461Z,10.10
2023-03-24T21:30:08.278Z,7.97
2023-03-24T21:32:38.980Z,6.50
2023-03-24T21:35:11.898Z,6.90
2023-03-24T21:37:45.649Z,7.07
2023-03-24T21:40:17.184Z,7.60
2023-03-24T21:42:49.744Z,7.13
2023-03-24T21:45:20.584Z,7.77
2023-03-24T21:47:50.356Z,11.25
2023-03-24T21:50:23.230Z,14.97
2023-03-24T21:52:52.650Z,10.67
2023-03-24T21:55:22.771Z,9.13
2023-03-24T21:57:52.330Z,7.93
2023-03-24T22:00:23.322Z,6.40
2023-03-24T22:02:53.713Z,5.83
2023-03-24T22:05:25.168Z,5.27
2023-03-24T22:07:56.866Z,5.63
2023-03-24T22:10:30.073Z,5.23
2023-03-24T22:12:58.709Z,4.57
2023-03-24T22:15:27.237Z,4.63
2023-03-24T22:17:55.865Z,4.73
2023-03-24T22:20:28.346Z,5.47
2023-03-24T22:22:56.737Z,6.13
2023-03-24T22:25:25.994Z,6.97
2023-03-24T22:27:56.277Z,6.43
2023-03-24T22:30:24.997Z,6.50
2023-03-24T22:32:53.397Z,7.77
2023-03-24T22:35:23.347Z,7.30
2023-03-24T22:37:53.288Z,8.60
2023-03-24T22:40:22.078Z,9.43
2023-03-24T22:42:51.248Z,9.93
2023-03-24T22:45:19.830Z,11.70
2023-03-24T22:47:48.283Z,8.97
2023-03-24T22:50:17.397Z,9.77
2023-03-24T22:52:45.738Z,7.53
2023-03-24T22:55:15.776Z,7.70
2023-03-24T22:57:44.270Z,6.50
2023-03-24T23:00:13.505Z,6.63
2023-03-24T23:02:42.176Z,4.40
2023-03-24T23:05:12.319Z,4.27
2023-03-24T23:07:42.209Z,4.20
2023-03-24T23:10:11.677Z,4.47
2023-03-24T23:12:42.787Z,4.13
2023-03-24T23:15:14.786Z,4.37
2023-03-24T23:17:43.761Z,4.00
2023-03-24T23:20:14.929Z,3.87
2023-03-24T23:22:43.344Z,4.67
2023-03-24T23:25:13.569Z,3.90
2023-03-24T23:27:43.672Z,4.10
2023-03-24T23:30:14.350Z,3.70
2023-03-24T23:32:43.844Z,3.90
2023-03-24T23:35:12.848Z,3.80
2023-03-24T23:37:41.692Z,3.90
2023-03-24T23:40:13.121Z,4.87
2023-03-24T23:42:44.529Z,4.57
2023-03-24T23:45:15.204Z,4.17
2023-03-24T23:47:44.394Z,4.37
2023-03-24T23:50:14.159Z,3.93
2023-03-24T23:52:44.186Z,3.93
2023-03-24T23:55:13.338Z,4.27
2023-03-24T23:57:43.923Z,5.23
